Terminal Aerodrome Forecast
Issued by NWS Paducah, KY

Home | Current Version | Previous Version | Text Only | Print | Product List | Glossary On
Versions: 1 2 3 4 5 6 7 8 9 10 11 12
000
FTUS43 KPAH 240500
TAFPAH
TAF
KPAH 240520Z 2406/2506 10005KT P6SM FEW150
     FM241700 17012G18KT P6SM SCT050 SCT120
     FM250000 18012G20KT P6SM VCTS BKN040CB OVC100
      TEMPO 2502/2506 3SM -TSRA BR OVC025CB=

USA.gov is the U.S. government's official web portal to all federal, state and local government web resources and services.